sensor_id;sensor_type;location;lat;lon;timestamp;P1;durP1;ratioP1;P2;durP2;ratioP2
7169;SDS011;3626;42.656;23.312;2024-03-06T00:00:04;27.61;;;12.83;;
7169;SDS011;3626;42.656;23.312;2024-03-06T00:00:12;27.57;;;12.75;;
7169;SDS011;3626;42.656;23.312;2024-03-06T00:00:19;27.92;;;12.90;;
7169;SDS011;3626;42.656;23.312;2024-03-06T00:00:25;28.13;;;12.90;;
7169;SDS011;3626;42.656;23.312;2024-03-06T00:00:31;28.52;;;13.07;;
7169;SDS011;3626;42.656;23.312;2024-03-06T00:00:38;28.93;;;13.43;;
7169;SDS011;3626;42.656;23.312;2024-03-06T00:00:43;29.48;;;13.48;;
7169;SDS011;3626;42.656;23.312;2024-03-06T00:00:50;31.73;;;13.70;;
7169;SDS011;3626;42.656;23.312;2024-03-06T00:00:56;31.23;;;13.68;;
7169;SDS011;3626;42.656;23.312;2024-03-06T00:01:01;31.60;;;13.80;;
7169;SDS011;3626;42.656;23.312;2024-03-06T00:01:07;32.55;;;13.90;;
7169;SDS011;3626;42.656;23.312;2024-03-06T00:01:13;32.72;;;13.93;;
7169;SDS011;3626;42.656;23.312;2024-03-06T00:01:19;32.67;;;13.95;;
7169;SDS011;3626;42.656;23.312;2024-03-06T00:01:24;33.13;;;13.97;;
7169;SDS011;3626;42.656;23.312;2024-03-06T00:01:30;33.83;;;13.73;;
7169;SDS011;3626;42.656;23.312;2024-03-06T00:01:37;33.00;;;13.47;;
7169;SDS011;3626;42.656;23.312;2024-03-06T00:01:42;32.53;;;13.60;;
7169;SDS011;3626;42.656;23.312;2024-03-06T00:01:48;29.95;;;13.60;;
7169;SDS011;3626;42.656;23.312;2024-03-06T00:01:54;29.08;;;13.43;;
7169;SDS011;3626;42.656;23.312;2024-03-06T00:01:59;28.80;;;12.98;;
7169;SDS011;3626;42.656;23.312;2024-03-06T00:02:05;28.47;;;13.03;;
7169;SDS011;3626;42.656;23.312;2024-03-06T00:02:11;28.50;;;13.25;;
7169;SDS011;3626;42.656;23.312;2024-03-06T00:02:16;30.25;;;13.32;;
7169;SDS011;3626;42.656;23.312;2024-03-06T00:02:22;30.93;;;13.07;;
7169;SDS011;3626;42.656;23.312;2024-03-06T00:02:28;30.48;;;12.95;;
7169;SDS011;3626;42.656;23.312;2024-03-06T00:02:33;31.30;;;13.10;;
7169;SDS011;3626;42.656;23.312;2024-03-06T00:02:39;31.30;;;13.00;;
7169;SDS011;3626;42.656;23.312;2024-03-06T00:02:46;31.77;;;12.90;;
7169;SDS011;3626;42.656;23.312;2024-03-06T00:02:52;32.65;;;12.98;;
7169;SDS011;3626;42.656;23.312;2024-03-06T00:02:57;33.03;;;13.15;;
7169;SDS011;3626;42.656;23.312;2024-03-06T00:03:03;33.30;;;13.13;;
7169;SDS011;3626;42.656;23.312;2024-03-06T00:03:09;34.20;;;13.13;;
7169;SDS011;3626;42.656;23.312;2024-03-06T00:03:14;32.03;;;13.00;;
7169;SDS011;3626;42.656;23.312;2024-03-06T00:03:20;32.00;;;13.17;;
7169;SDS011;3626;42.656;23.312;2024-03-06T00:03:26;31.73;;;13.50;;
7169;SDS011;3626;42.656;23.312;2024-03-06T00:03:31;30.70;;;13.40;;
7169;SDS011;3626;42.656;23.312;2024-03-06T00:03:37;29.50;;;13.23;;
7169;SDS011;3626;42.656;23.312;2024-03-06T00:03:43;30.77;;;13.25;;
7169;SDS011;3626;42.656;23.312;2024-03-06T00:03:48;30.60;;;13.30;;
7169;SDS011;3626;42.656;23.312;2024-03-06T00:03:54;29.92;;;13.30;;
7169;SDS011;3626;42.656;23.312;2024-03-06T00:03:59;29.40;;;13.27;;
7169;SDS011;3626;42.656;23.312;2024-03-06T00:04:07;26.88;;;12.90;;
7169;SDS011;3626;42.656;23.312;2024-03-06T00:04:13;27.38;;;13.02;;
7169;SDS011;3626;42.656;23.312;2024-03-06T00:04:18;26.98;;;12.80;;
7169;SDS011;3626;42.656;23.312;2024-03-06T00:04:24;26.60;;;12.63;;
7169;SDS011;3626;42.656;23.312;2024-03-06T00:04:30;26.58;;;12.40;;
7169;SDS011;3626;42.656;23.312;2024-03-06T00:04:36;26.90;;;12.37;;
7169;SDS011;3626;42.656;23.312;2024-03-06T00:04:42;25.85;;;12.35;;
7169;SDS011;3626;42.656;23.312;2024-03-06T00:04:48;25.90;;;12.27;;
7169;SDS011;3626;42.656;23.312;2024-03-06T00:04:54;25.92;;;12.15;;
7169;SDS011;3626;42.656;23.312;2024-03-06T00:04:59;26.73;;;12.45;;
7169;SDS011;3626;42.656;23.312;2024-03-06T00:05:05;29.10;;;12.87;;
7169;SDS011;3626;42.656;23.312;2024-03-06T00:05:12;30.57;;;12.60;;
7169;SDS011;3626;42.656;23.312;2024-03-06T00:05:18;30.80;;;12.70;;
7169;SDS011;3626;42.656;23.312;2024-03-06T00:05:24;30.93;;;13.03;;
7169;SDS011;3626;42.656;23.312;2024-03-06T00:05:29;31.45;;;13.05;;
7169;SDS011;3626;42.656;23.312;2024-03-06T00:05:35;32.05;;;13.35;;
7169;SDS011;3626;42.656;23.312;2024-03-06T00:05:41;32.40;;;13.57;;
7169;SDS011;3626;42.656;23.312;2024-03-06T00:05:47;31.42;;;13.40;;
7169;SDS011;3626;42.656;23.312;2024-03-06T00:05:52;31.90;;;13.52;;
7169;SDS011;3626;42.656;23.312;2024-03-06T00:05:58;32.20;;;13.35;;
7169;SDS011;3626;42.656;23.312;2024-03-06T00:06:04;31.83;;;13.00;;
7169;SDS011;3626;42.656;23.312;2024-03-06T00:06:11;30.00;;;13.20;;
7169;SDS011;3626;42.656;23.312;2024-03-06T00:06:17;30.13;;;13.23;;
7169;SDS011;3626;42.656;23.312;2024-03-06T00:06:22;29.77;;;13.07;;
7169;SDS011;3626;42.656;23.312;2024-03-06T00:06:29;28.37;;;12.80;;
7169;SDS011;3626;42.656;23.312;2024-03-06T00:06:35;28.85;;;12.68;;
7169;SDS011;3626;42.656;23.312;2024-03-06T00:06:41;28.67;;;12.60;;
7169;SDS011;3626;42.656;23.312;2024-03-06T00:06:47;29.03;;;12.70;;
7169;SDS011;3626;42.656;23.312;2024-03-06T00:06:52;29.55;;;12.85;;
7169;SDS011;3626;42.656;23.312;2024-03-06T00:07:00;31.33;;;13.20;;
7169;SDS011;3626;42.656;23.312;2024-03-06T00:07:06;31.60;;;13.40;;
7169;SDS011;3626;42.656;23.312;2024-03-06T00:07:11;31.35;;;13.13;;
7169;SDS011;3626;42.656;23.312;2024-03-06T00:07:17;31.60;;;12.82;;
7169;SDS011;3626;42.656;23.312;2024-03-06T00:07:23;31.83;;;12.70;;
7169;SDS011;3626;42.656;23.312;2024-03-06T00:07:28;32.40;;;12.75;;
7169;SDS011;3626;42.656;23.312;2024-03-06T00:07:34;32.50;;;12.52;;
7169;SDS011;3626;42.656;23.312;2024-03-06T00:07:41;32.72;;;12.43;;
7169;SDS011;3626;42.656;23.312;2024-03-06T00:07:46;32.45;;;12.15;;
7169;SDS011;3626;42.656;23.312;2024-03-06T00:07:52;31.45;;;11.90;;
7169;SDS011;3626;42.656;23.312;2024-03-06T00:07:58;30.43;;;11.80;;
7169;SDS011;3626;42.656;23.312;2024-03-06T00:08:03;28.05;;;11.57;;
7169;SDS011;3626;42.656;23.312;2024-03-06T00:08:11;28.03;;;11.77;;
7169;SDS011;3626;42.656;23.312;2024-03-06T00:08:17;26.85;;;11.98;;
7169;SDS011;3626;42.656;23.312;2024-03-06T00:08:22;26.67;;;12.07;;
7169;SDS011;3626;42.656;23.312;2024-03-06T00:08:28;26.13;;;12.00;;
7169;SDS011;3626;42.656;23.312;2024-03-06T00:08:34;25.40;;;12.27;;
7169;SDS011;3626;42.656;23.312;2024-03-06T00:08:39;25.50;;;12.30;;
7169;SDS011;3626;42.656;23.312;2024-03-06T00:08:45;25.45;;;12.45;;
7169;SDS011;3626;42.656;23.312;2024-03-06T00:08:51;25.45;;;12.60;;
7169;SDS011;3626;42.656;23.312;2024-03-06T00:08:56;25.90;;;12.77;;
7169;SDS011;3626;42.656;23.312;2024-03-06T00:09:02;27.25;;;12.93;;
7169;SDS011;3626;42.656;23.312;2024-03-06T00:09:08;27.88;;;12.95;;
7169;SDS011;3626;42.656;23.312;2024-03-06T00:09:14;28.07;;;12.90;;
7169;SDS011;3626;42.656;23.312;2024-03-06T00:09:19;27.88;;;12.82;;
7169;SDS011;3626;42.656;23.312;2024-03-06T00:09:25;28.63;;;13.02;;
7169;SDS011;3626;42.656;23.312;2024-03-06T00:09:58;30.30;;;12.98;;
7169;SDS011;3626;42.656;23.312;2024-03-06T00:10:03;30.03;;;12.70;;
7169;SDS011;3626;42.656;23.312;2024-03-06T00:10:10;30.82;;;12.92;;
7169;SDS011;3626;42.656;23.312;2024-03-06T00:10:15;31.47;;;12.80;;
7169;SDS011;3626;42.656;23.312;2024-03-06T00:10:22;31.40;;;12.65;;
7169;SDS011;3626;42.656;23.312;2024-03-06T00:10:28;31.46;;;12.50;;
7169;SDS011;3626;42.656;23.312;2024-03-06T00:10:34;31.83;;;12.70;;
7169;SDS011;3626;42.656;23.312;2024-03-06T00:10:41;30.33;;;12.70;;
7169;SDS011;3626;42.656;23.312;2024-03-06T00:10:48;29.50;;;12.48;;
7169;SDS011;3626;42.656;23.312;2024-03-06T00:10:54;30.06;;;12.56;;
7169;SDS011;3626;42.656;23.312;2024-03-06T00:11:00;30.60;;;12.68;;
7169;SDS011;3626;42.656;23.312;2024-03-06T00:11:05;29.47;;;12.60;;
7169;SDS011;3626;42.656;23.312;2024-03-06T00:11:11;28.63;;;12.50;;
7169;SDS011;3626;42.656;23.312;2024-03-06T00:11:16;28.20;;;12.60;;
7169;SDS011;3626;42.656;23.312;2024-03-06T00:11:22;27.90;;;12.60;;
7169;SDS011;3626;42.656;23.312;2024-03-06T00:11:28;26.63;;;12.52;;
7169;SDS011;3626;42.656;23.312;2024-03-06T00:11:33;26.10;;;12.23;;
7169;SDS011;3626;42.656;23.312;2024-03-06T00:11:40;26.00;;;12.00;;
7169;SDS011;3626;42.656;23.312;2024-03-06T00:11:46;26.77;;;12.07;;
7169;SDS011;3626;42.656;23.312;2024-03-06T00:11:52;27.33;;;12.07;;
7169;SDS011;3626;42.656;23.312;2024-03-06T00:11:59;25.87;;;11.60;;
7169;SDS011;3626;42.656;23.312;2024-03-06T00:12:05;26.45;;;11.43;;
7169;SDS011;3626;42.656;23.312;2024-03-06T00:12:11;26.90;;;11.23;;
7169;SDS011;3626;42.656;23.312;2024-03-06T00:12:17;27.25;;;11.27;;
7169;SDS011;3626;42.656;23.312;2024-03-06T00:12:23;26.60;;;11.20;;
7169;SDS011;3626;42.656;23.312;2024-03-06T00:12:29;26.52;;;11.35;;
7169;SDS011;3626;42.656;23.312;2024-03-06T00:12:35;25.70;;;11.35;;
7169;SDS011;3626;42.656;23.312;2024-03-06T00:12:40;26.13;;;11.60;;
7169;SDS011;3626;42.656;23.312;2024-03-06T00:12:46;26.38;;;11.60;;
7169;SDS011;3626;42.656;23.312;2024-03-06T00:12:52;27.00;;;11.67;;
7169;SDS011;3626;42.656;23.312;2024-03-06T00:12:57;28.77;;;11.88;;
7169;SDS011;3626;42.656;23.312;2024-03-06T00:13:06;28.80;;;11.90;;
7169;SDS011;3626;42.656;23.312;2024-03-06T00:13:11;28.17;;;12.00;;
7169;SDS011;3626;42.656;23.312;2024-03-06T00:13:17;28.40;;;12.00;;
7169;SDS011;3626;42.656;23.312;2024-03-06T00:13:23;29.60;;;12.18;;
7169;SDS011;3626;42.656;23.312;2024-03-06T00:13:29;30.73;;;12.20;;
7169;SDS011;3626;42.656;23.312;2024-03-06T00:13:35;31.13;;;12.17;;
7169;SDS011;3626;42.656;23.312;2024-03-06T00:13:41;31.70;;;11.98;;
7169;SDS011;3626;42.656;23.312;2024-03-06T00:13:46;31.02;;;11.90;;
7169;SDS011;3626;42.656;23.312;2024-03-06T00:13:52;29.60;;;11.80;;
7169;SDS011;3626;42.656;23.312;2024-03-06T00:13:58;28.60;;;11.80;;
7169;SDS011;3626;42.656;23.312;2024-03-06T00:14:04;28.70;;;11.82;;
7169;SDS011;3626;42.656;23.312;2024-03-06T00:14:10;29.50;;;11.87;;
7169;SDS011;3626;42.656;23.312;2024-03-06T00:14:17;29.27;;;11.90;;
7169;SDS011;3626;42.656;23.312;2024-03-06T00:14:24;28.48;;;11.80;;
7169;SDS011;3626;42.656;23.312;2024-03-06T00:14:30;28.02;;;11.90;;
7169;SDS011;3626;42.656;23.312;2024-03-06T00:14:36;28.08;;;12.00;;
7169;SDS011;3626;42.656;23.312;2024-03-06T00:14:42;27.63;;;12.20;;
7169;SDS011;3626;42.656;23.312;2024-03-06T00:14:47;28.20;;;12.38;;
7169;SDS011;3626;42.656;23.312;2024-03-06T00:14:53;28.43;;;12.40;;
7169;SDS011;3626;42.656;23.312;2024-03-06T00:14:58;28.35;;;12.32;;
7169;SDS011;3626;42.656;23.312;2024-03-06T00:15:05;28.90;;;12.38;;
7169;SDS011;3626;42.656;23.312;2024-03-06T00:15:13;28.07;;;12.11;;
7169;SDS011;3626;42.656;23.312;2024-03-06T00:15:20;27.47;;;11.90;;
7169;SDS011;3626;42.656;23.312;2024-03-06T00:15:26;27.23;;;11.73;;
7169;SDS011;3626;42.656;23.312;2024-03-06T00:15:32;26.36;;;11.48;;
7169;SDS011;3626;42.656;23.312;2024-03-06T00:15:38;26.25;;;11.40;;
7169;SDS011;3626;42.656;23.312;2024-03-06T00:15:44;26.55;;;11.35;;
7169;SDS011;3626;42.656;23.312;2024-03-06T00:15:50;26.57;;;11.30;;
7169;SDS011;3626;42.656;23.312;2024-03-06T00:15:57;26.92;;;11.40;;
7169;SDS011;3626;42.656;23.312;2024-03-06T00:16:03;26.88;;;11.50;;
7169;SDS011;3626;42.656;23.312;2024-03-06T00:16:09;26.80;;;11.67;;
7169;SDS011;3626;42.656;23.312;2024-03-06T00:16:15;28.60;;;11.77;;
7169;SDS011;3626;42.656;23.312;2024-03-06T00:16:22;29.40;;;12.23;;
7169;SDS011;3626;42.656;23.312;2024-03-06T00:16:27;29.30;;;12.30;;
7169;SDS011;3626;42.656;23.312;2024-03-06T00:16:33;28.52;;;12.20;;
7169;SDS011;3626;42.656;23.312;2024-03-06T00:16:39;27.73;;;12.03;;
7169;SDS011;3626;42.656;23.312;2024-03-06T00:16:44;27.30;;;12.05;;
7169;SDS011;3626;42.656;23.312;2024-03-06T00:16:50;26.35;;;12.00;;
7169;SDS011;3626;42.656;23.312;2024-03-06T00:16:56;26.05;;;12.05;;
7169;SDS011;3626;42.656;23.312;2024-03-06T00:17:02;26.03;;;12.00;;
7169;SDS011;3626;42.656;23.312;2024-03-06T00:17:09;26.23;;;12.08;;
7169;SDS011;3626;42.656;23.312;2024-03-06T00:17:16;24.60;;;12.07;;
7169;SDS011;3626;42.656;23.312;2024-03-06T00:17:21;25.00;;;11.93;;
7169;SDS011;3626;42.656;23.312;2024-03-06T00:17:27;25.20;;;12.07;;
7169;SDS011;3626;42.656;23.312;2024-03-06T00:17:33;26.97;;;12.33;;
7169;SDS011;3626;42.656;23.312;2024-03-06T00:17:40;27.47;;;12.67;;
7169;SDS011;3626;42.656;23.312;2024-03-06T00:17:46;27.48;;;12.60;;
7169;SDS011;3626;42.656;23.312;2024-03-06T00:17:52;27.47;;;12.37;;
7169;SDS011;3626;42.656;23.312;2024-03-06T00:17:57;27.77;;;12.23;;
7169;SDS011;3626;42.656;23.312;2024-03-06T00:18:03;27.77;;;12.20;;
7169;SDS011;3626;42.656;23.312;2024-03-06T00:18:10;30.00;;;12.07;;
7169;SDS011;3626;42.656;23.312;2024-03-06T00:18:16;30.30;;;12.10;;
7169;SDS011;3626;42.656;23.312;2024-03-06T00:18:21;30.00;;;12.20;;
7169;SDS011;3626;42.656;23.312;2024-03-06T00:18:27;29.98;;;12.13;;
7169;SDS011;3626;42.656;23.312;2024-03-06T00:18:33;29.85;;;12.30;;
7169;SDS011;3626;42.656;23.312;2024-03-06T00:18:39;30.65;;;12.23;;
7169;SDS011;3626;42.656;23.312;2024-03-06T00:18:45;30.97;;;12.33;;
7169;SDS011;3626;42.656;23.312;2024-03-06T00:18:50;32.00;;;12.80;;
7169;SDS011;3626;42.656;23.312;2024-03-06T00:18:56;32.80;;;13.05;;
7169;SDS011;3626;42.656;23.312;2024-03-06T00:19:03;32.48;;;13.30;;
7169;SDS011;3626;42.656;23.312;2024-03-06T00:19:09;31.10;;;13.10;;
7169;SDS011;3626;42.656;23.312;2024-03-06T00:19:14;30.05;;;13.05;;
7169;SDS011;3626;42.656;23.312;2024-03-06T00:19:20;29.58;;;12.88;;
7169;SDS011;3626;42.656;23.312;2024-03-06T00:19:25;31.30;;;13.00;;
7169;SDS011;3626;42.656;23.312;2024-03-06T00:19:31;30.73;;;12.77;;
7169;SDS011;3626;42.656;23.312;2024-03-06T00:19:38;29.10;;;12.40;;
7169;SDS011;3626;42.656;23.312;2024-03-06T00:19:43;27.63;;;12.02;;
7169;SDS011;3626;42.656;23.312;2024-03-06T00:19:49;26.83;;;11.65;;
7169;SDS011;3626;42.656;23.312;2024-03-06T00:19:55;25.70;;;11.40;;
7169;SDS011;3626;42.656;23.312;2024-03-06T00:20:00;25.83;;;11.40;;
7169;SDS011;3626;42.656;23.312;2024-03-06T00:20:10;25.40;;;11.40;;
7169;SDS011;3626;42.656;23.312;2024-03-06T00:20:16;25.60;;;11.50;;
7169;SDS011;3626;42.656;23.312;2024-03-06T00:20:22;25.10;;;11.57;;
7169;SDS011;3626;42.656;23.312;2024-03-06T00:20:29;24.63;;;11.70;;
7169;SDS011;3626;42.656;23.312;2024-03-06T00:20:35;25.27;;;11.77;;
7169;SDS011;3626;42.656;23.312;2024-03-06T00:20:40;25.73;;;12.17;;
7169;SDS011;3626;42.656;23.312;2024-03-06T00:20:47;27.70;;;12.63;;
7169;SDS011;3626;42.656;23.312;2024-03-06T00:20:53;27.83;;;12.57;;
7169;SDS011;3626;42.656;23.312;2024-03-06T00:20:58;27.50;;;12.33;;
7169;SDS011;3626;42.656;23.312;2024-03-06T00:21:04;28.15;;;12.20;;
7169;SDS011;3626;42.656;23.312;2024-03-06T00:21:09;27.70;;;12.15;;
7169;SDS011;3626;42.656;23.312;2024-03-06T00:21:15;27.47;;;12.20;;
7169;SDS011;3626;42.656;23.312;2024-03-06T00:21:21;27.35;;;12.05;;
7169;SDS011;3626;42.656;23.312;2024-03-06T00:21:27;27.15;;;12.00;;
7169;SDS011;3626;42.656;23.312;2024-03-06T00:21:34;26.40;;;11.87;;
7169;SDS011;3626;42.656;23.312;2024-03-06T00:21:43;26.70;;;11.80;;
7169;SDS011;3626;42.656;23.312;2024-03-06T00:21:49;25.90;;;11.77;;
7169;SDS011;3626;42.656;23.312;2024-03-06T00:21:54;26.42;;;11.85;;
7169;SDS011;3626;42.656;23.312;2024-03-06T00:22:00;27.60;;;12.00;;
7169;SDS011;3626;42.656;23.312;2024-03-06T00:22:06;27.77;;;12.13;;
7169;SDS011;3626;42.656;23.312;2024-03-06T00:22:14;31.84;;;12.03;;
7169;SDS011;3626;42.656;23.312;2024-03-06T00:22:20;31.77;;;11.97;;
7169;SDS011;3626;42.656;23.312;2024-03-06T00:22:26;32.60;;;12.20;;
7169;SDS011;3626;42.656;23.312;2024-03-06T00:22:33;32.67;;;12.30;;
7169;SDS011;3626;42.656;23.312;2024-03-06T00:22:38;32.40;;;12.17;;
7169;SDS011;3626;42.656;23.312;2024-03-06T00:22:44;31.55;;;12.10;;
7169;SDS011;3626;42.656;23.312;2024-03-06T00:22:50;30.94;;;12.00;;
7169;SDS011;3626;42.656;23.312;2024-03-06T00:22:56;29.90;;;11.97;;
7169;SDS011;3626;42.656;23.312;2024-03-06T00:23:04;28.87;;;11.93;;
7169;SDS011;3626;42.656;23.312;2024-03-06T00:23:09;24.95;;;11.82;;
7169;SDS011;3626;42.656;23.312;2024-03-06T00:23:15;25.17;;;11.90;;
7169;SDS011;3626;42.656;23.312;2024-03-06T00:23:22;25.80;;;11.97;;
7169;SDS011;3626;42.656;23.312;2024-03-06T00:23:27;25.30;;;11.80;;
7169;SDS011;3626;42.656;23.312;2024-03-06T00:23:33;25.90;;;12.00;;
7169;SDS011;3626;42.656;23.312;2024-03-06T00:23:42;25.87;;;11.87;;
7169;SDS011;3626;42.656;23.312;2024-03-06T00:23:48;27.27;;;11.80;;
7169;SDS011;3626;42.656;23.312;2024-03-06T00:23:53;27.23;;;11.77;;
7169;SDS011;3626;42.656;23.312;2024-03-06T00:24:00;28.10;;;11.70;;
7169;SDS011;3626;42.656;23.312;2024-03-06T00:24:06;27.95;;;11.57;;
7169;SDS011;3626;42.656;23.312;2024-03-06T00:24:12;27.42;;;11.60;;
7169;SDS011;3626;42.656;23.312;2024-03-06T00:24:19;28.00;;;11.48;;
7169;SDS011;3626;42.656;23.312;2024-03-06T00:24:24;29.95;;;11.35;;
7169;SDS011;3626;42.656;23.312;2024-03-06T00:24:30;29.40;;;11.13;;
7169;SDS011;3626;42.656;23.312;2024-03-06T00:24:37;30.40;;;11.10;;
7169;SDS011;3626;42.656;23.312;2024-03-06T00:24:43;29.90;;;11.10;;
7169;SDS011;3626;42.656;23.312;2024-03-06T00:24:48;29.67;;;11.10;;
7169;SDS011;3626;42.656;23.312;2024-03-06T00:24:54;29.42;;;11.13;;
7169;SDS011;3626;42.656;23.312;2024-03-06T00:25:00;28.43;;;11.10;;
7169;SDS011;3626;42.656;23.312;2024-03-06T00:25:06;28.80;;;11.25;;
7169;SDS011;3626;42.656;23.312;2024-03-06T00:25:13;27.93;;;11.20;;
7169;SDS011;3626;42.656;23.312;2024-03-06T00:25:19;26.43;;;11.13;;
7169;SDS011;3626;42.656;23.312;2024-03-06T00:25:26;24.13;;;11.18;;
7169;SDS011;3626;42.656;23.312;2024-03-06T00:25:32;24.96;;;11.68;;
7169;SDS011;3626;42.656;23.312;2024-03-06T00:25:37;23.88;;;11.77;;
7169;SDS011;3626;42.656;23.312;2024-03-06T00:25:43;23.83;;;11.93;;
7169;SDS011;3626;42.656;23.312;2024-03-06T00:25:49;23.40;;;11.95;;
7169;SDS011;3626;42.656;23.312;2024-03-06T00:25:54;24.05;;;11.85;;
7169;SDS011;3626;42.656;23.312;2024-03-06T00:26:00;24.97;;;12.07;;
7169;SDS011;3626;42.656;23.312;2024-03-06T00:26:07;25.28;;;12.10;;
7169;SDS011;3626;42.656;23.312;2024-03-06T00:26:13;26.50;;;12.33;;
7169;SDS011;3626;42.656;23.312;2024-03-06T00:26:18;26.67;;;12.45;;
7169;SDS011;3626;42.656;23.312;2024-03-06T00:26:24;26.83;;;12.47;;
7169;SDS011;3626;42.656;23.312;2024-03-06T00:26:30;25.95;;;11.98;;
7169;SDS011;3626;42.656;23.312;2024-03-06T00:26:35;26.17;;;11.88;;
7169;SDS011;3626;42.656;23.312;2024-03-06T00:26:42;26.50;;;11.82;;
7169;SDS011;3626;42.656;23.312;2024-03-06T00:26:49;27.35;;;11.90;;
7169;SDS011;3626;42.656;23.312;2024-03-06T00:26:55;26.40;;;12.10;;
7169;SDS011;3626;42.656;23.312;2024-03-06T00:27:00;26.65;;;12.35;;
7169;SDS011;3626;42.656;23.312;2024-03-06T00:27:08;27.20;;;12.43;;
7169;SDS011;3626;42.656;23.312;2024-03-06T00:27:15;27.93;;;12.60;;
7169;SDS011;3626;42.656;23.312;2024-03-06T00:27:20;29.25;;;12.88;;
7169;SDS011;3626;42.656;23.312;2024-03-06T00:27:26;30.50;;;12.98;;
7169;SDS011;3626;42.656;23.312;2024-03-06T00:27:34;29.63;;;12.90;;
7169;SDS011;3626;42.656;23.312;2024-03-06T00:27:40;29.70;;;12.97;;
7169;SDS011;3626;42.656;23.312;2024-03-06T00:27:45;29.67;;;13.15;;
7169;SDS011;3626;42.656;23.312;2024-03-06T00:27:51;31.98;;;13.38;;
7169;SDS011;3626;42.656;23.312;2024-03-06T00:27:57;32.03;;;13.03;;
7169;SDS011;3626;42.656;23.312;2024-03-06T00:28:02;30.92;;;12.80;;
7169;SDS011;3626;42.656;23.312;2024-03-06T00:28:08;30.83;;;12.80;;
7169;SDS011;3626;42.656;23.312;2024-03-06T00:28:14;30.50;;;12.90;;
7169;SDS011;3626;42.656;23.312;2024-03-06T00:28:19;30.30;;;12.83;;
7169;SDS011;3626;42.656;23.312;2024-03-06T00:28:25;29.70;;;12.85;;
7169;SDS011;3626;42.656;23.312;2024-03-06T00:28:32;32.22;;;13.40;;
7169;SDS011;3626;42.656;23.312;2024-03-06T00:28:37;33.53;;;13.47;;
7169;SDS011;3626;42.656;23.312;2024-03-06T00:28:43;34.20;;;13.05;;
7169;SDS011;3626;42.656;23.312;2024-03-06T00:28:49;32.60;;;12.48;;
7169;SDS011;3626;42.656;23.312;2024-03-06T00:28:54;31.33;;;12.67;;
7169;SDS011;3626;42.656;23.312;2024-03-06T00:29:00;31.23;;;12.68;;
7169;SDS011;3626;42.656;23.312;2024-03-06T00:29:06;31.50;;;12.55;;
7169;SDS011;3626;42.656;23.312;2024-03-06T00:29:11;31.07;;;12.13;;
7169;SDS011;3626;42.656;23.312;2024-03-06T00:29:17;29.95;;;11.85;;
7169;SDS011;3626;42.656;23.312;2024-03-06T00:29:23;30.20;;;12.10;;
7169;SDS011;3626;42.656;23.312;2024-03-06T00:29:29;27.65;;;11.68;;
7169;SDS011;3626;42.656;23.312;2024-03-06T00:29:34;26.70;;;11.53;;
7169;SDS011;3626;42.656;23.312;2024-03-06T00:29:43;26.07;;;11.53;;
7169;SDS011;3626;42.656;23.312;2024-03-06T00:29:48;25.83;;;11.95;;
7169;SDS011;3626;42.656;23.312;2024-03-06T00:29:54;25.88;;;11.60;;
7169;SDS011;3626;42.656;23.312;2024-03-06T00:30:00;25.67;;;11.50;;
7169;SDS011;3626;42.656;23.312;2024-03-06T00:30:06;24.85;;;11.32;;
7169;SDS011;3626;42.656;23.312;2024-03-06T00:30:12;24.53;;;11.30;;
7169;SDS011;3626;42.656;23.312;2024-03-06T00:30:19;24.78;;;11.16;;
7169;SDS011;3626;42.656;23.312;2024-03-06T00:30:25;24.80;;;10.90;;
7169;SDS011;3626;42.656;23.312;2024-03-06T00:30:32;26.14;;;10.98;;
7169;SDS011;3626;42.656;23.312;2024-03-06T00:30:38;28.00;;;11.38;;
7169;SDS011;3626;42.656;23.312;2024-03-06T00:30:43;28.07;;;11.27;;
7169;SDS011;3626;42.656;23.312;2024-03-06T00:30:49;28.20;;;11.25;;
7169;SDS011;3626;42.656;23.312;2024-03-06T00:30:55;28.23;;;11.30;;
7169;SDS011;3626;42.656;23.312;2024-03-06T00:31:00;28.53;;;11.47;;
7169;SDS011;3626;42.656;23.312;2024-03-06T00:31:06;29.30;;;11.95;;
7169;SDS011;3626;42.656;23.312;2024-03-06T00:31:11;29.63;;;12.20;;
7169;SDS011;3626;42.656;23.312;2024-03-06T00:31:17;30.43;;;12.33;;
7169;SDS011;3626;42.656;23.312;2024-03-06T00:31:23;29.85;;;12.35;;
7169;SDS011;3626;42.656;23.312;2024-03-06T00:31:28;29.17;;;12.47;;
7169;SDS011;3626;42.656;23.312;2024-03-06T00:31:34;28.70;;;12.30;;
7169;SDS011;3626;42.656;23.312;2024-03-06T00:31:42;27.85;;;12.13;;
7169;SDS011;3626;42.656;23.312;2024-03-06T00:31:48;28.85;;;12.32;;
7169;SDS011;3626;42.656;23.312;2024-03-06T00:31:53;28.87;;;12.53;;
7169;SDS011;3626;42.656;23.312;2024-03-06T00:31:59;29.13;;;12.60;;
7169;SDS011;3626;42.656;23.312;2024-03-06T00:32:05;29.80;;;12.45;;
7169;SDS011;3626;42.656;23.312;2024-03-06T00:32:11;29.87;;;12.30;;
7169;SDS011;3626;42.656;23.312;2024-03-06T00:32:17;29.63;;;12.27;;
7169;SDS011;3626;42.656;23.312;2024-03-06T00:32:23;30.42;;;12.45;;
7169;SDS011;3626;42.656;23.312;2024-03-06T00:32:28;30.37;;;12.40;;
7169;SDS011;3626;42.656;23.312;2024-03-06T00:32:34;30.17;;;12.60;;
7169;SDS011;3626;42.656;23.312;2024-03-06T00:32:40;30.60;;;12.63;;
7169;SDS011;3626;42.656;23.312;2024-03-06T00:32:45;31.25;;;12.75;;
7169;SDS011;3626;42.656;23.312;2024-03-06T00:32:51;30.60;;;12.60;;
7169;SDS011;3626;42.656;23.312;2024-03-06T00:32:57;31.02;;;12.48;;
7169;SDS011;3626;42.656;23.312;2024-03-06T00:33:04;30.87;;;12.77;;
7169;SDS011;3626;42.656;23.312;2024-03-06T00:33:10;31.23;;;12.75;;
7169;SDS011;3626;42.656;23.312;2024-03-06T00:33:15;32.17;;;13.15;;
7169;SDS011;3626;42.656;23.312;2024-03-06T00:33:22;33.00;;;13.23;;
7169;SDS011;3626;42.656;23.312;2024-03-06T00:33:28;32.90;;;13.15;;
7169;SDS011;3626;42.656;23.312;2024-03-06T00:33:34;33.67;;;13.10;;
7169;SDS011;3626;42.656;23.312;2024-03-06T00:33:39;32.97;;;13.18;;
7169;SDS011;3626;42.656;23.312;2024-03-06T00:33:45;31.75;;;13.23;;
7169;SDS011;3626;42.656;23.312;2024-03-06T00:33:51;32.47;;;13.53;;
7169;SDS011;3626;42.656;23.312;2024-03-06T00:33:57;32.42;;;13.50;;
7169;SDS011;3626;42.656;23.312;2024-03-06T00:34:03;31.63;;;13.13;;
7169;SDS011;3626;42.656;23.312;2024-03-06T00:34:09;30.80;;;13.20;;
7169;SDS011;3626;42.656;23.312;2024-03-06T00:34:16;29.43;;;12.90;;
7169;SDS011;3626;42.656;23.312;2024-03-06T00:34:22;28.80;;;12.80;;
7169;SDS011;3626;42.656;23.312;2024-03-06T00:34:27;28.63;;;12.70;;
7169;SDS011;3626;42.656;23.312;2024-03-06T00:34:34;27.37;;;12.53;;
7169;SDS011;3626;42.656;23.312;2024-03-06T00:34:39;27.95;;;12.57;;
7169;SDS011;3626;42.656;23.312;2024-03-06T00:34:45;27.73;;;12.40;;
7169;SDS011;3626;42.656;23.312;2024-03-06T00:34:51;27.50;;;12.23;;
7169;SDS011;3626;42.656;23.312;2024-03-06T00:34:56;27.70;;;12.45;;
7169;SDS011;3626;42.656;23.312;2024-03-06T00:35:02;27.43;;;12.73;;
7169;SDS011;3626;42.656;23.312;2024-03-06T00:35:08;29.30;;;12.90;;
7169;SDS011;3626;42.656;23.312;2024-03-06T00:35:14;29.52;;;12.82;;
7169;SDS011;3626;42.656;23.312;2024-03-06T00:35:20;29.17;;;12.90;;
7169;SDS011;3626;42.656;23.312;2024-03-06T00:35:25;29.75;;;12.95;;
7169;SDS011;3626;42.656;23.312;2024-03-06T00:35:31;29.40;;;13.00;;
7169;SDS011;3626;42.656;23.312;2024-03-06T00:35:37;28.23;;;13.13;;
7169;SDS011;3626;42.656;23.312;2024-03-06T00:35:42;27.77;;;13.00;;
7169;SDS011;3626;42.656;23.312;2024-03-06T00:35:48;27.40;;;12.93;;
7169;SDS011;3626;42.656;23.312;2024-03-06T00:35:54;27.25;;;13.00;;
7169;SDS011;3626;42.656;23.312;2024-03-06T00:36:00;28.00;;;12.87;;